createdAt,value
2022-11-19T00:01:23.205Z,5.78
2022-11-19T00:03:53.068Z,5.72
2022-11-19T00:06:25.418Z,5.13
2022-11-19T00:08:52.198Z,5.35
2022-11-19T00:11:42.486Z,5.97
2022-11-19T00:14:12.222Z,6.85
2022-11-19T00:16:38.606Z,6.97
2022-11-19T00:19:05.398Z,6.45
2022-11-19T00:21:31.755Z,7.43
2022-11-19T00:23:58.151Z,6.18
2022-11-19T00:26:24.896Z,6.63
2022-11-19T00:28:51.200Z,6.15
2022-11-19T00:31:18.256Z,6.25
2022-11-19T00:33:45.385Z,7.05
2022-11-19T00:36:14.569Z,6.38
2022-11-19T00:38:41.173Z,6.38
2022-11-19T00:41:07.565Z,6.32
2022-11-19T00:43:50.029Z,5.97
2022-11-19T00:46:22.098Z,6.43
2022-11-19T00:48:50.167Z,5.40
2022-11-19T00:51:18.355Z,5.90
2022-11-19T00:53:45.104Z,4.97
2022-11-19T00:56:14.043Z,4.93
2022-11-19T00:58:41.539Z,5.25
2022-11-19T01:01:09.790Z,5.95
2022-11-19T01:03:37.393Z,6.38
2022-11-19T01:06:04.565Z,6.50
2022-11-19T01:08:31.142Z,5.80
2022-11-19T01:11:05.004Z,6.25
2022-11-19T01:13:37.362Z,5.68
2022-11-19T01:16:15.542Z,6.20
2022-11-19T01:18:43.931Z,5.55
2022-11-19T01:21:12.034Z,6.25
2022-11-19T01:23:40.196Z,6.30
2022-11-19T01:26:07.516Z,6.00
2022-11-19T01:28:34.160Z,6.63
2022-11-19T01:31:05.760Z,6.35
2022-11-19T01:33:32.105Z,6.72
2022-11-19T01:36:00.139Z,5.88
2022-11-19T01:38:27.860Z,6.20
2022-11-19T01:40:55.559Z,4.88
2022-11-19T01:43:40.501Z,5.35
2022-11-19T01:46:06.950Z,7.07
2022-11-19T01:48:36.826Z,7.78
2022-11-19T01:51:09.654Z,7.40
2022-11-19T01:53:37.022Z,7.45
2022-11-19T01:56:06.541Z,8.10
2022-11-19T01:58:39.700Z,7.70
2022-11-19T02:01:07.654Z,4.93
2022-11-19T02:03:34.616Z,5.28
2022-11-19T02:06:02.288Z,6.05
2022-11-19T02:08:39.600Z,7.45
2022-11-19T02:11:41.733Z,7.78
2022-11-19T02:14:24.833Z,7.70
2022-11-19T02:17:00.265Z,8.77
2022-11-19T02:19:55.276Z,7.13
2022-11-19T02:22:36.745Z,9.30
2022-11-19T02:25:24.433Z,7.65
2022-11-19T02:27:56.505Z,7.00
2022-11-19T02:30:22.929Z,8.90
2022-11-19T02:32:56.827Z,8.43
2022-11-19T02:35:35.478Z,7.38
2022-11-19T02:38:07.466Z,8.77
2022-11-19T02:40:41.223Z,9.32
2022-11-19T02:43:39.687Z,9.65
2022-11-19T02:46:12.325Z,9.10
2022-11-19T02:48:42.998Z,9.73
2022-11-19T02:51:09.311Z,9.60
2022-11-19T02:53:35.694Z,9.48
2022-11-19T02:56:17.686Z,9.23
2022-11-19T02:59:10.662Z,10.75
2022-11-19T03:02:00.993Z,9.30
2022-11-19T03:04:29.644Z,9.52
2022-11-19T03:07:06.917Z,8.80
2022-11-19T03:09:36.434Z,8.10
2022-11-19T03:12:12.104Z,10.50
2022-11-19T03:15:13.880Z,8.52
2022-11-19T03:18:09.643Z,9.65
2022-11-19T03:20:40.739Z,10.25
2022-11-19T03:25:49.118Z,9.68
2022-11-19T03:28:21.798Z,9.45
2022-11-19T03:30:50.686Z,10.93
2022-11-19T03:33:26.599Z,8.55
2022-11-19T03:36:04.602Z,10.50
2022-11-19T03:38:36.059Z,10.30
2022-11-19T03:41:05.744Z,10.82
2022-11-19T03:43:38.284Z,10.63
2022-11-19T03:46:09.084Z,10.27
2022-11-19T03:48:37.815Z,10.60
2022-11-19T03:51:12.145Z,11.43
2022-11-19T03:53:38.704Z,10.80
2022-11-19T03:56:08.628Z,10.80
2022-11-19T03:58:40.285Z,10.45
2022-11-19T04:01:07.622Z,10.52
2022-11-19T04:03:33.949Z,10.90
2022-11-19T04:06:00.255Z,11.55
2022-11-19T04:08:26.599Z,7.40
2022-11-19T04:10:53.211Z,7.50
2022-11-19T04:13:19.576Z,9.23
2022-11-19T04:15:45.875Z,9.82
2022-11-19T04:18:12.179Z,11.20
2022-11-19T04:20:38.484Z,11.45
2022-11-19T04:23:04.788Z,9.80
2022-11-19T04:25:31.112Z,12.60
2022-11-19T04:27:57.403Z,10.32
2022-11-19T04:30:23.715Z,9.27
2022-11-19T04:32:50.088Z,9.98
2022-11-19T04:35:21.232Z,11.98
2022-11-19T04:40:14.666Z,9.82
2022-11-19T04:42:41.024Z,10.77
2022-11-19T04:45:08.153Z,9.40
2022-11-19T04:47:34.445Z,9.85
2022-11-19T04:50:00.766Z,7.45
2022-11-19T04:52:27.077Z,11.80
2022-11-19T04:54:53.369Z,10.38
2022-11-19T04:57:19.887Z,11.65
2022-11-19T04:59:46.634Z,12.30
2022-11-19T05:02:12.938Z,10.32
2022-11-19T05:04:39.231Z,9.68
2022-11-19T05:07:05.606Z,12.25
2022-11-19T05:09:31.927Z,11.23
2022-11-19T05:11:58.213Z,10.18
2022-11-19T05:14:29.914Z,12.50
2022-11-19T05:16:56.755Z,12.77
2022-11-19T05:19:23.074Z,11.05
2022-11-19T05:21:49.362Z,11.85
2022-11-19T05:24:15.687Z,11.63
2022-11-19T05:26:42.025Z,11.93
2022-11-19T05:29:08.376Z,11.75
2022-11-19T05:31:34.720Z,11.63
2022-11-19T05:34:01.128Z,11.98
2022-11-19T05:36:27.540Z,11.68
2022-11-19T05:38:53.949Z,11.60
2022-11-19T05:41:20.389Z,12.00
2022-11-19T05:43:46.808Z,12.00
2022-11-19T05:46:13.347Z,11.43
2022-11-19T05:48:39.644Z,10.18
2022-11-19T05:51:05.966Z,11.07
2022-11-19T05:53:32.265Z,11.40
2022-11-19T05:55:58.587Z,12.38
2022-11-19T05:58:24.898Z,10.60
2022-11-19T06:00:55.869Z,9.23
2022-11-19T06:05:48.591Z,12.07
2022-11-19T06:08:14.967Z,13.10
2022-11-19T06:10:41.263Z,8.60
2022-11-19T06:13:07.560Z,10.48
2022-11-19T06:15:33.887Z,11.50
2022-11-19T06:18:00.180Z,11.10
2022-11-19T06:20:26.512Z,10.65
2022-11-19T06:22:52.903Z,10.68
2022-11-19T06:25:19.673Z,11.13
2022-11-19T06:27:46.096Z,11.05
2022-11-19T06:30:13.628Z,12.38
2022-11-19T06:32:40.020Z,10.88
2022-11-19T06:35:06.613Z,12.30
2022-11-19T06:37:32.893Z,12.32
2022-11-19T06:39:59.277Z,11.15
2022-11-19T06:42:38.381Z,8.20
2022-11-19T06:45:10.461Z,11.15
2022-11-19T06:47:38.324Z,11.88
2022-11-19T06:50:06.836Z,6.50
2022-11-19T06:52:33.274Z,10.98
2022-11-19T06:54:59.840Z,9.40
2022-11-19T06:57:26.243Z,10.90
2022-11-19T06:59:52.593Z,9.13
2022-11-19T07:02:21.591Z,10.90
2022-11-19T07:04:48.365Z,11.18
2022-11-19T07:07:14.783Z,10.27
2022-11-19T07:09:41.133Z,9.52
2022-11-19T07:12:08.089Z,10.68
2022-11-19T07:14:34.454Z,11.82
2022-11-19T07:17:01.055Z,6.95
2022-11-19T07:19:27.891Z,10.45
2022-11-19T07:21:54.207Z,9.52
2022-11-19T07:24:20.572Z,10.15
2022-11-19T07:26:46.901Z,10.50
2022-11-19T07:29:15.006Z,9.85
2022-11-19T07:31:42.009Z,9.70
2022-11-19T07:34:10.308Z,9.25
2022-11-19T07:36:37.274Z,9.73
2022-11-19T07:39:05.256Z,9.30
2022-11-19T11:56:44.939Z,3.58
2022-11-19T11:59:21.062Z,4.57
2022-11-19T12:02:02.193Z,4.30
2022-11-19T12:04:29.055Z,4.57
2022-11-19T12:07:07.324Z,5.07
2022-11-19T12:09:40.512Z,4.80
2022-11-19T12:12:29.277Z,5.10
2022-11-19T12:15:30.812Z,5.05
2022-11-19T12:18:05.978Z,3.15
2022-11-19T12:21:11.512Z,4.68
2022-11-19T12:23:53.868Z,4.35
2022-11-19T12:26:37.341Z,4.93
2022-11-19T12:29:25.793Z,4.90
2022-11-19T12:32:33.202Z,3.33
2022-11-19T12:35:10.173Z,4.38
2022-11-19T12:37:41.659Z,4.28
2022-11-19T12:40:42.363Z,4.95
2022-11-19T12:43:44.182Z,4.82
2022-11-19T12:46:29.120Z,4.35
2022-11-19T12:49:20.160Z,4.63
2022-11-19T12:52:02.982Z,4.72
2022-11-19T12:54:35.269Z,4.43
2022-11-19T12:57:26.072Z,4.40
2022-11-19T13:00:04.556Z,4.47
2022-11-19T13:02:41.337Z,4.45
2022-11-19T13:05:17.505Z,4.38
2022-11-19T13:07:53.577Z,4.95
2022-11-19T13:10:26.692Z,3.92
2022-11-19T13:12:55.704Z,4.18
2022-11-19T13:15:34.155Z,4.13
2022-11-19T13:18:05.137Z,4.00
2022-11-19T13:20:55.781Z,4.38
2022-11-19T13:23:38.473Z,4.85
2022-11-19T13:26:09.257Z,3.97
2022-11-19T13:28:37.901Z,4.45
2022-11-19T13:31:13.426Z,4.80
2022-11-19T13:34:07.029Z,5.10
2022-11-19T13:36:38.161Z,4.18
2022-11-19T13:39:19.872Z,4.13
2022-11-19T13:42:08.579Z,4.10
2022-11-19T13:44:38.481Z,4.43
2022-11-19T13:47:12.306Z,4.30
2022-11-19T13:49:56.587Z,4.22
2022-11-19T13:52:28.827Z,4.85
2022-11-19T13:54:58.158Z,4.28
2022-11-19T13:57:34.708Z,4.47
2022-11-19T14:00:06.919Z,4.07
2022-11-19T14:02:48.696Z,3.90
2022-11-19T14:05:24.403Z,4.03
2022-11-19T14:08:16.416Z,3.80
2022-11-19T14:11:07.536Z,3.80
2022-11-19T14:16:53.845Z,3.92
2022-11-19T14:22:49.890Z,3.88
2022-11-19T14:25:59.571Z,3.67
2022-11-19T14:28:46.473Z,2.95
2022-11-19T14:31:14.214Z,3.90
2022-11-19T14:33:46.760Z,3.50
2022-11-19T14:36:29.623Z,3.85
2022-11-19T14:38:59.853Z,3.72
2022-11-19T14:41:34.519Z,3.47
2022-11-19T14:44:08.168Z,4.28
2022-11-19T14:46:40.512Z,3.60
2022-11-19T14:49:21.492Z,4.00
2022-11-19T14:54:30.174Z,3.45
2022-11-19T14:57:16.472Z,3.33
2022-11-19T14:59:48.381Z,3.95
2022-11-19T15:02:17.779Z,3.80
2022-11-19T15:05:16.708Z,3.67
2022-11-19T15:08:12.089Z,3.47
2022-11-19T15:11:07.696Z,3.78
2022-11-19T15:13:36.687Z,2.90
2022-11-19T15:16:03.162Z,3.50
2022-11-19T15:18:44.493Z,3.63
2022-11-19T15:21:21.261Z,3.10
2022-11-19T15:24:09.358Z,3.10
2022-11-19T15:26:47.151Z,3.25
2022-11-19T15:29:13.549Z,3.78
2022-11-19T15:32:17.443Z,3.78
2022-11-19T15:38:04.237Z,3.40
2022-11-19T15:40:33.949Z,3.28
2022-11-19T15:43:16.123Z,3.47
2022-11-19T15:45:53.041Z,3.55
2022-11-19T15:48:27.589Z,4.07
2022-11-19T15:50:54.258Z,3.30
2022-11-19T15:53:23.059Z,3.83
2022-11-19T15:55:56.658Z,3.65
2022-11-19T15:58:30.762Z,3.50
2022-11-19T16:00:57.162Z,3.20
2022-11-19T16:03:24.078Z,3.40
2022-11-19T16:06:08.808Z,3.60
2022-11-19T16:08:35.594Z,3.80
2022-11-19T16:11:22.660Z,3.75
2022-11-19T16:14:11.700Z,4.28
2022-11-19T16:16:57.474Z,4.78
2022-11-19T16:19:24.159Z,6.47
2022-11-19T16:21:55.886Z,18.35
2022-11-19T16:24:43.988Z,16.50
2022-11-19T16:27:12.959Z,14.48
2022-11-19T16:29:41.880Z,10.35
2022-11-19T16:32:08.919Z,9.27
2022-11-19T16:34:38.908Z,7.60
2022-11-19T16:37:05.388Z,6.50
2022-11-19T16:39:33.445Z,5.10
2022-11-19T16:42:19.634Z,5.20
2022-11-19T16:44:48.302Z,4.80
2022-11-19T16:47:34.847Z,4.53
2022-11-19T16:50:01.723Z,4.25
2022-11-19T16:52:34.400Z,4.47
2022-11-19T16:55:01.906Z,3.78
2022-11-19T16:57:30.306Z,3.83
2022-11-19T17:00:13.021Z,4.68
2022-11-19T17:02:40.767Z,4.25
2022-11-19T17:05:10.394Z,4.78
2022-11-19T17:07:37.024Z,4.43
2022-11-19T17:10:30.410Z,3.97
2022-11-19T17:13:04.116Z,3.72
2022-11-19T17:15:44.977Z,4.55
2022-11-19T17:18:17.364Z,3.83
2022-11-19T17:20:43.649Z,4.50
2022-11-19T17:23:15.029Z,3.97
2022-11-19T17:25:55.305Z,4.43
2022-11-19T17:28:28.593Z,4.77
2022-11-19T17:30:55.385Z,4.72
2022-11-19T17:33:23.165Z,4.65
2022-11-19T17:35:50.226Z,4.35
2022-11-19T17:38:24.274Z,5.28
2022-11-19T17:40:59.515Z,5.47
2022-11-19T17:43:55.989Z,5.07
2022-11-19T17:46:24.203Z,5.22
2022-11-19T17:48:51.475Z,5.05
2022-11-19T17:51:20.779Z,5.20
2022-11-19T17:53:51.469Z,4.97
2022-11-19T17:56:30.328Z,5.13
2022-11-19T17:58:58.792Z,5.40
2022-11-19T18:01:25.246Z,5.40
2022-11-19T18:03:51.588Z,5.00
2022-11-19T18:06:18.243Z,4.93
2022-11-19T18:08:45.527Z,4.68
2022-11-19T18:11:21.282Z,4.47
2022-11-19T18:13:50.862Z,3.75
2022-11-19T18:16:20.380Z,3.33
2022-11-19T18:18:47.192Z,4.57
2022-11-19T18:21:16.259Z,4.45
2022-11-19T18:23:44.225Z,5.05
2022-11-19T18:26:15.510Z,4.95
2022-11-19T18:28:44.962Z,4.25
2022-11-19T18:31:26.461Z,4.38
2022-11-19T18:33:53.946Z,4.22
2022-11-19T18:36:20.815Z,4.43
2022-11-19T18:38:47.221Z,4.35
2022-11-19T18:41:15.122Z,5.10
2022-11-19T18:44:20.176Z,4.90
2022-11-19T18:46:46.525Z,4.93
2022-11-19T18:49:12.836Z,4.63
2022-11-19T18:51:39.617Z,4.63
2022-11-19T18:54:05.931Z,4.88
2022-11-19T18:56:32.313Z,4.30
2022-11-19T18:59:04.337Z,4.90
2022-11-19T19:01:31.180Z,5.40
2022-11-19T19:03:57.547Z,6.05
2022-11-19T19:06:25.437Z,5.53
2022-11-19T19:08:51.870Z,5.95
2022-11-19T19:11:36.634Z,7.03
2022-11-19T19:14:04.016Z,7.40
2022-11-19T19:16:30.689Z,6.90
2022-11-19T19:18:57.070Z,8.70
2022-11-19T19:21:24.112Z,8.55
2022-11-19T19:23:50.584Z,9.45
2022-11-19T19:26:18.494Z,8.57
2022-11-19T19:28:49.410Z,10.18
2022-11-19T19:31:17.941Z,10.02
2022-11-19T19:33:46.113Z,10.27
2022-11-19T19:36:12.660Z,10.25
2022-11-19T19:38:40.645Z,8.85
2022-11-19T19:41:09.940Z,8.35
2022-11-19T19:43:36.269Z,7.82
2022-11-19T19:46:08.706Z,7.07
2022-11-19T19:48:38.175Z,6.68
2022-11-19T19:51:04.918Z,7.20
2022-11-19T19:53:31.332Z,7.00
2022-11-19T19:56:05.256Z,6.85
2022-11-19T19:58:32.170Z,6.65
2022-11-19T20:01:10.526Z,6.53
2022-11-19T20:03:37.501Z,6.43
2022-11-19T20:06:05.786Z,7.28
2022-11-19T20:08:33.942Z,8.30
2022-11-19T20:11:11.708Z,7.72
2022-11-19T20:13:39.580Z,7.65
2022-11-19T20:16:13.156Z,7.15
2022-11-19T20:18:43.384Z,6.30
2022-11-19T20:21:12.270Z,6.03
2022-11-19T20:23:39.954Z,5.78
2022-11-19T20:26:12.898Z,5.80
2022-11-19T20:28:39.521Z,5.30
2022-11-19T20:31:09.956Z,5.13
2022-11-19T20:33:37.121Z,5.32
2022-11-19T20:36:04.661Z,5.63
2022-11-19T20:38:31.233Z,6.13
2022-11-19T20:40:59.640Z,7.75
2022-11-19T20:43:51.547Z,6.80
2022-11-19T20:46:20.858Z,5.80
2022-11-19T20:48:48.561Z,5.88
2022-11-19T20:51:19.737Z,6.00
2022-11-19T20:53:46.170Z,5.60
2022-11-19T20:56:13.224Z,5.82
2022-11-19T20:58:39.577Z,5.82
2022-11-19T21:01:08.009Z,5.88
2022-11-19T21:03:34.429Z,5.78
2022-11-19T21:06:02.804Z,5.68
2022-11-19T21:08:31.762Z,6.05
2022-11-19T21:11:03.583Z,5.82
2022-11-19T21:13:30.255Z,6.10
2022-11-19T21:15:58.371Z,5.95
2022-11-19T21:18:25.699Z,6.55
2022-11-19T21:20:52.065Z,7.38
2022-11-19T21:23:22.076Z,8.55
2022-11-19T21:25:48.424Z,8.93
2022-11-19T21:28:14.849Z,9.48
2022-11-19T21:30:41.636Z,9.27
2022-11-19T21:33:08.006Z,8.70
2022-11-19T21:35:38.841Z,9.75
2022-11-19T21:38:09.447Z,12.77
2022-11-19T21:40:39.364Z,11.85
2022-11-19T21:43:06.680Z,11.30
2022-11-19T21:45:33.278Z,9.90
2022-11-19T21:47:59.641Z,12.35
2022-11-19T21:50:25.965Z,13.57
2022-11-19T21:52:52.303Z,15.95
2022-11-19T21:55:18.582Z,14.60
2022-11-19T21:57:44.897Z,11.77
2022-11-19T22:00:12.134Z,9.40
2022-11-19T22:02:38.426Z,9.63
2022-11-19T22:05:05.486Z,9.70
2022-11-19T22:07:31.838Z,8.55
2022-11-19T22:09:58.231Z,9.32
2022-11-19T22:12:24.667Z,8.80
2022-11-19T22:14:50.956Z,8.88
2022-11-19T22:17:17.281Z,8.60
2022-11-19T22:19:43.610Z,9.10
2022-11-19T22:22:09.904Z,10.07
2022-11-19T22:24:36.193Z,9.93
2022-11-19T22:27:02.538Z,7.75
2022-11-19T22:29:28.962Z,7.10
2022-11-19T22:31:55.291Z,8.60
2022-11-19T22:34:21.585Z,8.95
2022-11-19T22:36:47.950Z,7.47
2022-11-19T22:39:14.302Z,8.57
2022-11-19T22:41:40.626Z,9.30
2022-11-19T22:44:06.969Z,9.50
2022-11-19T22:46:33.355Z,9.90
2022-11-19T22:48:59.680Z,10.82
2022-11-19T22:51:26.244Z,10.38
2022-11-19T22:53:53.723Z,9.52
2022-11-19T22:56:26.061Z,8.35
2022-11-19T22:58:52.703Z,7.40
2022-11-19T23:01:24.262Z,7.72
2022-11-19T23:03:50.749Z,7.43
2022-11-19T23:06:17.168Z,5.97
2022-11-19T23:08:44.788Z,10.55
2022-11-19T23:11:12.319Z,7.13
2022-11-19T23:13:41.157Z,8.48
2022-11-19T23:16:14.949Z,7.65
2022-11-19T23:18:52.402Z,8.52
2022-11-19T23:21:24.100Z,9.07
2022-11-19T23:23:51.233Z,7.90
2022-11-19T23:26:20.370Z,7.95
2022-11-19T23:28:46.710Z,8.35
2022-11-19T23:31:18.502Z,9.27
2022-11-19T23:33:45.742Z,8.40
2022-11-19T23:36:14.535Z,9.70
2022-11-19T23:38:41.302Z,9.35
2022-11-19T23:41:10.182Z,10.70
2022-11-19T23:43:36.890Z,8.80
2022-11-19T23:46:09.819Z,8.82
2022-11-19T23:48:37.694Z,8.35
2022-11-19T23:51:15.876Z,7.88
2022-11-19T23:53:43.071Z,9.18
2022-11-19T23:56:10.640Z,8.85
2022-11-19T23:58:37.756Z,7.85
